TFM - Tactical Decision Aid INFO Settings
 
 

ID: Runway Winds: Threshold: METAR Board: Map:

KDFW - Dallas/Fort Worth Intl

Updated at: 2051 UTC 29 Jul 2014
Latest TAF at: 1720 UTC 29 Jul 2014

TAF Board

Time1953Z29/21Z29/22Z29/23Z30/00Z30/01Z30/02Z30/03Z30/04Z30/05Z30/06Z30/07Z30/08Z30/09Z
TypeOBSPRVLPRVLPRVLPRVLPRVLPRVLPRVLPRVLPRVLPRVLPRVLPRVLPRVL
Vis10>6>6>6>6>6>6>6>6>6>6>6>6>6
Cig100100250250250250250250250250250250250250
CoverBKNBKNBKNBKNBKNBKNBKNBKNBKNBKNBKNBKNBKNBKN
FltCat--VFRVFRVFRVFRVFRVFRVFRVFRVFRVFRVFRVFRVFR
Wx----------------------------
WDir240100120120120120120120120120120120120120
WSpd35666666666666
WGst----------------------------
Raw TAF
KDFW 291720Z 2918/3024 10005KT P6SM BKN100
  FM292200 12006KT P6SM SCT100 BKN250
  FM301500 16010KT P6SM VCSH BKN100


Raw METAR
KDFW 291953Z 24003KT 10SM FEW035 SCT070 BKN100 BKN150 25/16 A3013 RMK AO2 RAE51 SLP195 P0000 T02500156

TAF/METAR Board Legend

Hazard VFR MVFR IFR LIFR
Visibility (sm) >5 3≤X≤5 1≤X<3 <1
Ceiling (100 ft) >30 10≤X≤30 5≤X<10 <5
Wind Speed (kt) <10 10≤X<20 20≤X<30 ≥30
Wind Gust (kt) <10 10≤X<20 20≤X<30 ≥30
Weather No Wx Reported -TS,-FZRA TS,FZRA +TS,+FZRA

Page loaded:  20:51 UTC  |   01:51 PM Pacific  |   02:51 PM Mountain  |   03:51 PM Central  |   04:51 PM Eastern

 

ADVISORIES

FORECASTS

FORECASTS

OBSERVATIONS

USER TOOLS

ABOUT US